METAR Data
IDs: Format: Raw Decoded Include TAF

Data at: 0209 UTC 24 Oct 2019

METAR for:KALO (Waterloo Rgnl, IA, US)
Text:KALO 240154Z AUTO 34008KT 10SM SCT029 OVC039 04/03 A3006 RMK AO2 RAB04E13 SLP188 P0000 T00440028
Temperature: 4.4°C ( 40°F)
Dewpoint: 2.8°C ( 37°F) [RH = 89%]
Pressure (altimeter):30.06 inches Hg (1018.0 mb) [Sea level pressure: 1018.8 mb]
Winds:from the NNW (340 degrees) at 9 MPH (8 knots; 4.1 m/s)
Visibility:10 or more sm (16+ km)
Ceiling:3900 feet AGL
Clouds: scattered clouds at 2900 feet AGL, overcast cloud deck at 3900 feet AGL
QC Flag:automated observation with no human augmentation